sensor_id;sensor_type;location;lat;lon;timestamp;P1;durP1;ratioP1;P2;durP2;ratioP2
72755;SDS011;60881;55.002;73.232;2022-10-18T00:01:06;4.85;;;3.15;;
72755;SDS011;60881;55.002;73.232;2022-10-18T00:03:34;6.57;;;3.13;;
72755;SDS011;60881;55.002;73.232;2022-10-18T00:06:01;7.47;;;3.90;;
72755;SDS011;60881;55.002;73.232;2022-10-18T00:08:39;8.30;;;3.70;;
72755;SDS011;60881;55.002;73.232;2022-10-18T00:11:06;7.40;;;3.30;;
72755;SDS011;60881;55.002;73.232;2022-10-18T00:13:33;10.75;;;3.78;;
72755;SDS011;60881;55.002;73.232;2022-10-18T00:16:01;10.50;;;4.63;;
72755;SDS011;60881;55.002;73.232;2022-10-18T00:18:32;12.73;;;3.80;;
72755;SDS011;60881;55.002;73.232;2022-10-18T00:21:05;11.98;;;5.30;;
72755;SDS011;60881;55.002;73.232;2022-10-18T00:23:34;22.88;;;7.10;;
72755;SDS011;60881;55.002;73.232;2022-10-18T00:26:13;12.15;;;5.50;;
72755;SDS011;60881;55.002;73.232;2022-10-18T00:28:45;12.82;;;5.55;;
72755;SDS011;60881;55.002;73.232;2022-10-18T00:31:17;14.73;;;6.13;;
72755;SDS011;60881;55.002;73.232;2022-10-18T00:33:48;16.90;;;5.75;;
72755;SDS011;60881;55.002;73.232;2022-10-18T00:36:22;12.48;;;5.60;;
72755;SDS011;60881;55.002;73.232;2022-10-18T00:38:54;7.82;;;4.63;;
72755;SDS011;60881;55.002;73.232;2022-10-18T00:41:24;12.13;;;4.60;;
72755;SDS011;60881;55.002;73.232;2022-10-18T00:46:39;12.60;;;6.00;;
72755;SDS011;60881;55.002;73.232;2022-10-18T00:51:55;11.20;;;4.40;;
72755;SDS011;60881;55.002;73.232;2022-10-18T00:54:25;8.88;;;4.90;;
72755;SDS011;60881;55.002;73.232;2022-10-18T00:56:55;10.43;;;5.28;;
72755;SDS011;60881;55.002;73.232;2022-10-18T00:59:22;12.80;;;6.18;;
72755;SDS011;60881;55.002;73.232;2022-10-18T01:01:50;13.50;;;6.40;;
72755;SDS011;60881;55.002;73.232;2022-10-18T01:04:22;14.93;;;6.68;;
72755;SDS011;60881;55.002;73.232;2022-10-18T01:06:56;13.35;;;6.28;;
72755;SDS011;60881;55.002;73.232;2022-10-18T01:12:16;13.63;;;7.43;;
72755;SDS011;60881;55.002;73.232;2022-10-18T01:32:16;8.20;;;4.63;;
72755;SDS011;60881;55.002;73.232;2022-10-18T01:34:46;13.20;;;6.72;;
72755;SDS011;60881;55.002;73.232;2022-10-18T01:37:17;17.70;;;10.07;;
72755;SDS011;60881;55.002;73.232;2022-10-18T01:39:51;26.38;;;11.80;;
72755;SDS011;60881;55.002;73.232;2022-10-18T01:42:29;24.42;;;13.73;;
72755;SDS011;60881;55.002;73.232;2022-10-18T01:44:58;17.73;;;10.30;;
72755;SDS011;60881;55.002;73.232;2022-10-18T01:47:26;14.25;;;7.70;;
72755;SDS011;60881;55.002;73.232;2022-10-18T01:49:58;11.65;;;5.22;;
72755;SDS011;60881;55.002;73.232;2022-10-18T01:52:46;9.68;;;5.03;;
72755;SDS011;60881;55.002;73.232;2022-10-18T01:55:14;8.55;;;4.65;;
72755;SDS011;60881;55.002;73.232;2022-10-18T01:57:44;5.53;;;3.90;;
72755;SDS011;60881;55.002;73.232;2022-10-18T02:01:04;10.48;;;4.25;;
72755;SDS011;60881;55.002;73.232;2022-10-18T02:03:31;23.08;;;6.88;;
72755;SDS011;60881;55.002;73.232;2022-10-18T02:06:30;15.60;;;10.45;;
72755;SDS011;60881;55.002;73.232;2022-10-18T02:09:15;15.68;;;9.27;;
72755;SDS011;60881;55.002;73.232;2022-10-18T02:11:46;11.80;;;6.97;;
72755;SDS011;60881;55.002;73.232;2022-10-18T02:14:16;9.25;;;5.20;;
72755;SDS011;60881;55.002;73.232;2022-10-18T02:16:44;14.13;;;6.85;;
72755;SDS011;60881;55.002;73.232;2022-10-18T02:19:17;12.20;;;5.90;;
72755;SDS011;60881;55.002;73.232;2022-10-18T02:21:59;18.92;;;10.65;;
72755;SDS011;60881;55.002;73.232;2022-10-18T02:24:30;18.40;;;10.75;;
72755;SDS011;60881;55.002;73.232;2022-10-18T02:27:00;17.40;;;8.02;;
72755;SDS011;60881;55.002;73.232;2022-10-18T02:29:27;12.73;;;7.40;;
72755;SDS011;60881;55.002;73.232;2022-10-18T02:31:58;10.30;;;6.22;;
72755;SDS011;60881;55.002;73.232;2022-10-18T02:34:57;8.00;;;4.60;;
72755;SDS011;60881;55.002;73.232;2022-10-18T02:37:29;7.68;;;4.72;;
72755;SDS011;60881;55.002;73.232;2022-10-18T02:40:02;9.25;;;4.80;;
72755;SDS011;60881;55.002;73.232;2022-10-18T02:42:38;11.38;;;4.45;;
72755;SDS011;60881;55.002;73.232;2022-10-18T02:45:10;11.75;;;5.03;;
72755;SDS011;60881;55.002;73.232;2022-10-18T02:47:42;12.18;;;4.80;;
72755;SDS011;60881;55.002;73.232;2022-10-18T02:50:09;10.43;;;4.53;;
72755;SDS011;60881;55.002;73.232;2022-10-18T02:52:35;9.77;;;4.32;;
72755;SDS011;60881;55.002;73.232;2022-10-18T02:55:02;10.73;;;5.00;;
72755;SDS011;60881;55.002;73.232;2022-10-18T02:57:30;6.10;;;3.85;;
72755;SDS011;60881;55.002;73.232;2022-10-18T02:59:57;11.48;;;4.20;;
72755;SDS011;60881;55.002;73.232;2022-10-18T03:02:25;7.68;;;3.70;;
72755;SDS011;60881;55.002;73.232;2022-10-18T03:04:52;9.05;;;3.97;;
72755;SDS011;60881;55.002;73.232;2022-10-18T03:07:18;9.23;;;5.10;;
72755;SDS011;60881;55.002;73.232;2022-10-18T03:09:45;7.30;;;4.60;;
72755;SDS011;60881;55.002;73.232;2022-10-18T03:12:11;13.68;;;5.25;;
72755;SDS011;60881;55.002;73.232;2022-10-18T03:14:38;7.72;;;4.15;;
72755;SDS011;60881;55.002;73.232;2022-10-18T03:17:05;15.88;;;4.15;;
72755;SDS011;60881;55.002;73.232;2022-10-18T03:19:34;7.80;;;3.80;;
72755;SDS011;60881;55.002;73.232;2022-10-18T03:22:00;13.20;;;6.80;;
72755;SDS011;60881;55.002;73.232;2022-10-18T03:24:27;26.88;;;5.68;;
72755;SDS011;60881;55.002;73.232;2022-10-18T03:26:53;16.80;;;7.30;;
72755;SDS011;60881;55.002;73.232;2022-10-18T03:29:20;22.40;;;7.30;;
72755;SDS011;60881;55.002;73.232;2022-10-18T03:31:47;19.60;;;8.57;;
72755;SDS011;60881;55.002;73.232;2022-10-18T03:34:13;22.33;;;10.77;;
72755;SDS011;60881;55.002;73.232;2022-10-18T03:36:42;28.83;;;13.02;;
72755;SDS011;60881;55.002;73.232;2022-10-18T03:39:09;24.85;;;6.93;;
72755;SDS011;60881;55.002;73.232;2022-10-18T03:41:41;19.75;;;6.53;;
72755;SDS011;60881;55.002;73.232;2022-10-18T03:44:07;17.42;;;7.60;;
72755;SDS011;60881;55.002;73.232;2022-10-18T03:46:34;20.42;;;8.88;;
72755;SDS011;60881;55.002;73.232;2022-10-18T03:49:00;33.17;;;7.20;;
72755;SDS011;60881;55.002;73.232;2022-10-18T03:51:28;18.30;;;6.80;;
72755;SDS011;60881;55.002;73.232;2022-10-18T03:53:55;24.35;;;6.85;;
72755;SDS011;60881;55.002;73.232;2022-10-18T03:56:21;16.65;;;4.95;;
72755;SDS011;60881;55.002;73.232;2022-10-18T03:58:58;15.60;;;5.75;;
72755;SDS011;60881;55.002;73.232;2022-10-18T04:01:25;13.82;;;4.75;;
72755;SDS011;60881;55.002;73.232;2022-10-18T04:04:02;17.98;;;4.40;;
72755;SDS011;60881;55.002;73.232;2022-10-18T04:06:29;7.50;;;4.00;;
72755;SDS011;60881;55.002;73.232;2022-10-18T04:09:08;5.90;;;3.85;;
72755;SDS011;60881;55.002;73.232;2022-10-18T04:11:35;7.03;;;3.78;;
72755;SDS011;60881;55.002;73.232;2022-10-18T04:14:02;11.48;;;4.78;;
72755;SDS011;60881;55.002;73.232;2022-10-18T04:16:29;11.95;;;4.25;;
72755;SDS011;60881;55.002;73.232;2022-10-18T04:19:01;6.57;;;3.65;;
72755;SDS011;60881;55.002;73.232;2022-10-18T04:21:29;13.60;;;5.15;;
72755;SDS011;60881;55.002;73.232;2022-10-18T04:23:55;10.45;;;4.97;;
72755;SDS011;60881;55.002;73.232;2022-10-18T04:26:22;13.00;;;5.15;;
72755;SDS011;60881;55.002;73.232;2022-10-18T04:28:52;8.50;;;4.45;;
72755;SDS011;60881;55.002;73.232;2022-10-18T04:31:20;9.10;;;4.30;;
72755;SDS011;60881;55.002;73.232;2022-10-18T04:33:46;9.43;;;4.75;;
72755;SDS011;60881;55.002;73.232;2022-10-18T04:36:14;9.35;;;4.95;;
72755;SDS011;60881;55.002;73.232;2022-10-18T04:38:41;11.35;;;4.80;;
72755;SDS011;60881;55.002;73.232;2022-10-18T04:41:09;9.07;;;4.80;;
72755;SDS011;60881;55.002;73.232;2022-10-18T04:43:35;16.45;;;5.43;;
72755;SDS011;60881;55.002;73.232;2022-10-18T04:46:07;24.85;;;7.93;;
72755;SDS011;60881;55.002;73.232;2022-10-18T04:48:37;21.27;;;8.13;;
72755;SDS011;60881;55.002;73.232;2022-10-18T04:51:13;17.65;;;7.78;;
72755;SDS011;60881;55.002;73.232;2022-10-18T04:53:40;27.60;;;7.85;;
72755;SDS011;60881;55.002;73.232;2022-10-18T04:56:08;16.30;;;5.85;;
72755;SDS011;60881;55.002;73.232;2022-10-18T04:58:34;9.77;;;5.72;;
72755;SDS011;60881;55.002;73.232;2022-10-18T05:01:03;9.45;;;4.97;;
72755;SDS011;60881;55.002;73.232;2022-10-18T05:03:32;28.13;;;11.05;;
72755;SDS011;60881;55.002;73.232;2022-10-18T05:05:59;19.40;;;8.48;;
72755;SDS011;60881;55.002;73.232;2022-10-18T05:08:32;12.27;;;6.45;;
72755;SDS011;60881;55.002;73.232;2022-10-18T05:10:59;19.05;;;8.57;;
72755;SDS011;60881;55.002;73.232;2022-10-18T05:13:27;15.43;;;8.45;;
72755;SDS011;60881;55.002;73.232;2022-10-18T05:15:59;19.63;;;8.27;;
72755;SDS011;60881;55.002;73.232;2022-10-18T05:18:27;14.45;;;7.20;;
72755;SDS011;60881;55.002;73.232;2022-10-18T05:20:54;15.85;;;6.90;;
72755;SDS011;60881;55.002;73.232;2022-10-18T05:23:21;11.45;;;5.90;;
72755;SDS011;60881;55.002;73.232;2022-10-18T05:25:49;8.98;;;5.80;;
72755;SDS011;60881;55.002;73.232;2022-10-18T05:28:23;10.88;;;4.70;;
72755;SDS011;60881;55.002;73.232;2022-10-18T05:30:49;14.25;;;5.40;;
72755;SDS011;60881;55.002;73.232;2022-10-18T05:33:16;8.43;;;4.70;;
72755;SDS011;60881;55.002;73.232;2022-10-18T05:35:48;9.45;;;4.82;;
72755;SDS011;60881;55.002;73.232;2022-10-18T05:38:15;9.90;;;4.88;;
72755;SDS011;60881;55.002;73.232;2022-10-18T05:40:41;9.50;;;4.80;;
72755;SDS011;60881;55.002;73.232;2022-10-18T05:43:08;8.00;;;5.00;;
72755;SDS011;60881;55.002;73.232;2022-10-18T05:45:36;13.93;;;5.28;;
72755;SDS011;60881;55.002;73.232;2022-10-18T05:48:03;19.80;;;7.50;;
72755;SDS011;60881;55.002;73.232;2022-10-18T05:50:31;12.75;;;6.10;;
72755;SDS011;60881;55.002;73.232;2022-10-18T05:53:02;9.48;;;5.47;;
72755;SDS011;60881;55.002;73.232;2022-10-18T05:55:29;9.90;;;6.10;;
72755;SDS011;60881;55.002;73.232;2022-10-18T05:57:55;10.68;;;5.65;;
72755;SDS011;60881;55.002;73.232;2022-10-18T06:00:22;12.75;;;5.80;;
72755;SDS011;60881;55.002;73.232;2022-10-18T06:02:54;10.13;;;5.70;;
72755;SDS011;60881;55.002;73.232;2022-10-18T06:05:22;17.83;;;7.72;;
72755;SDS011;60881;55.002;73.232;2022-10-18T06:07:49;12.95;;;6.90;;
72755;SDS011;60881;55.002;73.232;2022-10-18T06:10:17;11.25;;;6.45;;
72755;SDS011;60881;55.002;73.232;2022-10-18T06:12:44;8.90;;;6.10;;
72755;SDS011;60881;55.002;73.232;2022-10-18T06:15:11;9.52;;;5.80;;
72755;SDS011;60881;55.002;73.232;2022-10-18T06:17:38;10.00;;;5.85;;
72755;SDS011;60881;55.002;73.232;2022-10-18T06:20:05;9.75;;;6.03;;
72755;SDS011;60881;55.002;73.232;2022-10-18T06:22:32;10.05;;;5.50;;
72755;SDS011;60881;55.002;73.232;2022-10-18T06:24:59;12.77;;;6.57;;
72755;SDS011;60881;55.002;73.232;2022-10-18T06:27:25;14.63;;;6.20;;
72755;SDS011;60881;55.002;73.232;2022-10-18T06:29:52;12.02;;;6.53;;
72755;SDS011;60881;55.002;73.232;2022-10-18T06:32:19;11.98;;;7.47;;
72755;SDS011;60881;55.002;73.232;2022-10-18T06:34:45;14.05;;;7.10;;
72755;SDS011;60881;55.002;73.232;2022-10-18T06:37:12;13.43;;;6.65;;
72755;SDS011;60881;55.002;73.232;2022-10-18T06:39:38;15.07;;;7.80;;
72755;SDS011;60881;55.002;73.232;2022-10-18T06:42:05;11.05;;;7.63;;
72755;SDS011;60881;55.002;73.232;2022-10-18T06:44:33;12.48;;;7.60;;
72755;SDS011;60881;55.002;73.232;2022-10-18T06:47:09;13.50;;;8.30;;
72755;SDS011;60881;55.002;73.232;2022-10-18T06:49:36;15.18;;;8.20;;
72755;SDS011;60881;55.002;73.232;2022-10-18T06:52:03;10.88;;;7.45;;
72755;SDS011;60881;55.002;73.232;2022-10-18T06:54:33;13.88;;;8.55;;
72755;SDS011;60881;55.002;73.232;2022-10-18T06:57:03;18.77;;;8.90;;
72755;SDS011;60881;55.002;73.232;2022-10-18T06:59:30;17.95;;;9.65;;
72755;SDS011;60881;55.002;73.232;2022-10-18T07:01:57;15.23;;;8.98;;
72755;SDS011;60881;55.002;73.232;2022-10-18T07:04:26;16.42;;;9.75;;
72755;SDS011;60881;55.002;73.232;2022-10-18T07:06:54;18.15;;;9.60;;
72755;SDS011;60881;55.002;73.232;2022-10-18T07:09:21;13.98;;;9.20;;
72755;SDS011;60881;55.002;73.232;2022-10-18T07:11:49;16.30;;;9.45;;
72755;SDS011;60881;55.002;73.232;2022-10-18T07:14:17;17.25;;;10.38;;
72755;SDS011;60881;55.002;73.232;2022-10-18T07:16:44;18.33;;;10.40;;
72755;SDS011;60881;55.002;73.232;2022-10-18T07:19:10;27.67;;;10.70;;
72755;SDS011;60881;55.002;73.232;2022-10-18T07:21:37;19.88;;;9.95;;
72755;SDS011;60881;55.002;73.232;2022-10-18T07:24:04;12.55;;;8.43;;
72755;SDS011;60881;55.002;73.232;2022-10-18T07:26:32;16.27;;;8.80;;
72755;SDS011;60881;55.002;73.232;2022-10-18T07:29:03;14.43;;;7.15;;
72755;SDS011;60881;55.002;73.232;2022-10-18T07:31:32;16.13;;;6.60;;
72755;SDS011;60881;55.002;73.232;2022-10-18T07:33:59;18.92;;;7.32;;
72755;SDS011;60881;55.002;73.232;2022-10-18T07:36:26;20.50;;;8.70;;
72755;SDS011;60881;55.002;73.232;2022-10-18T07:38:53;12.23;;;7.45;;
72755;SDS011;60881;55.002;73.232;2022-10-18T07:41:21;13.10;;;6.45;;
72755;SDS011;60881;55.002;73.232;2022-10-18T07:43:48;12.02;;;7.00;;
72755;SDS011;60881;55.002;73.232;2022-10-18T07:46:17;21.20;;;7.40;;
72755;SDS011;60881;55.002;73.232;2022-10-18T07:48:45;14.05;;;6.28;;
72755;SDS011;60881;55.002;73.232;2022-10-18T07:51:12;8.20;;;5.15;;
72755;SDS011;60881;55.002;73.232;2022-10-18T07:53:40;9.50;;;5.93;;
72755;SDS011;60881;55.002;73.232;2022-10-18T07:56:08;13.50;;;6.20;;
72755;SDS011;60881;55.002;73.232;2022-10-18T07:58:41;9.50;;;5.70;;
72755;SDS011;60881;55.002;73.232;2022-10-18T08:01:08;10.43;;;6.07;;
72755;SDS011;60881;55.002;73.232;2022-10-18T08:03:35;11.95;;;5.95;;
72755;SDS011;60881;55.002;73.232;2022-10-18T08:06:04;11.98;;;5.50;;
72755;SDS011;60881;55.002;73.232;2022-10-18T08:08:34;10.70;;;6.00;;
72755;SDS011;60881;55.002;73.232;2022-10-18T08:11:06;9.23;;;5.90;;
72755;SDS011;60881;55.002;73.232;2022-10-18T08:13:37;8.50;;;5.50;;
72755;SDS011;60881;55.002;73.232;2022-10-18T08:16:08;11.32;;;5.93;;
72755;SDS011;60881;55.002;73.232;2022-10-18T08:18:37;9.57;;;6.20;;
72755;SDS011;60881;55.002;73.232;2022-10-18T08:21:05;8.07;;;5.28;;
72755;SDS011;60881;55.002;73.232;2022-10-18T08:23:33;10.70;;;6.38;;
72755;SDS011;60881;55.002;73.232;2022-10-18T08:26:03;8.90;;;5.65;;
72755;SDS011;60881;55.002;73.232;2022-10-18T08:28:32;11.15;;;5.97;;
72755;SDS011;60881;55.002;73.232;2022-10-18T08:31:02;10.90;;;5.70;;
72755;SDS011;60881;55.002;73.232;2022-10-18T08:33:32;8.80;;;4.30;;
72755;SDS011;60881;55.002;73.232;2022-10-18T08:36:01;7.45;;;4.18;;
72755;SDS011;60881;55.002;73.232;2022-10-18T08:38:33;6.25;;;4.40;;
72755;SDS011;60881;55.002;73.232;2022-10-18T08:46:47;11.20;;;5.35;;
72755;SDS011;60881;55.002;73.232;2022-10-18T08:49:18;10.60;;;5.57;;
72755;SDS011;60881;55.002;73.232;2022-10-18T08:51:51;7.07;;;4.68;;
72755;SDS011;60881;55.002;73.232;2022-10-18T08:56:58;8.70;;;4.70;;
72755;SDS011;60881;55.002;73.232;2022-10-18T08:59:28;8.45;;;4.97;;
72755;SDS011;60881;55.002;73.232;2022-10-18T09:02:14;7.88;;;4.75;;
72755;SDS011;60881;55.002;73.232;2022-10-18T09:10:42;7.38;;;5.30;;
72755;SDS011;60881;55.002;73.232;2022-10-18T09:16:09;10.82;;;6.30;;
72755;SDS011;60881;55.002;73.232;2022-10-18T09:24:28;18.35;;;4.32;;
72755;SDS011;60881;55.002;73.232;2022-10-18T09:27:14;8.95;;;4.50;;
72755;SDS011;60881;55.002;73.232;2022-10-18T09:29:56;10.80;;;5.80;;
72755;SDS011;60881;55.002;73.232;2022-10-18T09:32:50;11.73;;;6.20;;
72755;SDS011;60881;55.002;73.232;2022-10-18T09:35:26;9.15;;;5.70;;
72755;SDS011;60881;55.002;73.232;2022-10-18T09:38:03;14.07;;;7.43;;
72755;SDS011;60881;55.002;73.232;2022-10-18T09:40:36;18.70;;;11.25;;
72755;SDS011;60881;55.002;73.232;2022-10-18T09:43:15;17.73;;;11.05;;
72755;SDS011;60881;55.002;73.232;2022-10-18T09:45:45;15.60;;;8.30;;
72755;SDS011;60881;55.002;73.232;2022-10-18T09:56:13;19.63;;;8.88;;
72755;SDS011;60881;55.002;73.232;2022-10-18T09:58:51;10.40;;;6.10;;
72755;SDS011;60881;55.002;73.232;2022-10-18T10:01:21;14.18;;;7.07;;
72755;SDS011;60881;55.002;73.232;2022-10-18T10:03:50;16.52;;;7.10;;
72755;SDS011;60881;55.002;73.232;2022-10-18T10:08:56;8.65;;;5.97;;
72755;SDS011;60881;55.002;73.232;2022-10-18T10:11:45;11.02;;;6.72;;
72755;SDS011;60881;55.002;73.232;2022-10-18T10:14:19;15.00;;;6.82;;
72755;SDS011;60881;55.002;73.232;2022-10-18T10:16:50;15.77;;;8.07;;
72755;SDS011;60881;55.002;73.232;2022-10-18T10:19:17;12.55;;;6.20;;
72755;SDS011;60881;55.002;73.232;2022-10-18T10:22:00;10.70;;;5.80;;
72755;SDS011;60881;55.002;73.232;2022-10-18T10:24:49;10.05;;;4.82;;
72755;SDS011;60881;55.002;73.232;2022-10-18T10:27:19;11.15;;;5.50;;
72755;SDS011;60881;55.002;73.232;2022-10-18T10:29:51;6.28;;;3.90;;
72755;SDS011;60881;55.002;73.232;2022-10-18T10:32:22;6.70;;;4.30;;
72755;SDS011;60881;55.002;73.232;2022-10-18T10:34:51;7.38;;;4.55;;
72755;SDS011;60881;55.002;73.232;2022-10-18T10:37:23;9.65;;;5.30;;
72755;SDS011;60881;55.002;73.232;2022-10-18T10:40:17;6.88;;;4.43;;
72755;SDS011;60881;55.002;73.232;2022-10-18T10:46:08;10.27;;;6.10;;
72755;SDS011;60881;55.002;73.232;2022-10-18T10:48:52;27.73;;;14.07;;
72755;SDS011;60881;55.002;73.232;2022-10-18T10:56:29;5.75;;;3.80;;
72755;SDS011;60881;55.002;73.232;2022-10-18T10:59:19;3.92;;;2.40;;
72755;SDS011;60881;55.002;73.232;2022-10-18T11:01:46;2.70;;;1.75;;
72755;SDS011;60881;55.002;73.232;2022-10-18T11:04:27;6.72;;;2.10;;
72755;SDS011;60881;55.002;73.232;2022-10-18T11:07:03;3.97;;;2.08;;
72755;SDS011;60881;55.002;73.232;2022-10-18T11:09:50;16.70;;;2.80;;
72755;SDS011;60881;55.002;73.232;2022-10-18T11:12:35;4.88;;;3.03;;
72755;SDS011;60881;55.002;73.232;2022-10-18T11:15:23;9.77;;;3.70;;
72755;SDS011;60881;55.002;73.232;2022-10-18T11:23:29;9.50;;;3.63;;
72755;SDS011;60881;55.002;73.232;2022-10-18T11:26:10;20.95;;;6.00;;
72755;SDS011;60881;55.002;73.232;2022-10-18T11:31:47;28.90;;;15.73;;
72755;SDS011;60881;55.002;73.232;2022-10-18T11:34:54;14.77;;;5.47;;
72755;SDS011;60881;55.002;73.232;2022-10-18T11:43:22;13.80;;;5.40;;
72755;SDS011;60881;55.002;73.232;2022-10-18T11:48:51;14.85;;;5.90;;
72755;SDS011;60881;55.002;73.232;2022-10-18T11:52:02;9.32;;;4.40;;
72755;SDS011;60881;55.002;73.232;2022-10-18T12:00:24;9.57;;;4.72;;
72755;SDS011;60881;55.002;73.232;2022-10-18T12:03:28;8.55;;;4.50;;
72755;SDS011;60881;55.002;73.232;2022-10-18T12:06:24;8.70;;;4.72;;
72755;SDS011;60881;55.002;73.232;2022-10-18T12:09:21;8.73;;;4.80;;
72755;SDS011;60881;55.002;73.232;2022-10-18T12:11:50;10.68;;;4.30;;
72755;SDS011;60881;55.002;73.232;2022-10-18T12:16:53;6.05;;;4.18;;
72755;SDS011;60881;55.002;73.232;2022-10-18T12:19:27;11.45;;;4.22;;
72755;SDS011;60881;55.002;73.232;2022-10-18T12:22:01;8.15;;;4.57;;
72755;SDS011;60881;55.002;73.232;2022-10-18T12:24:38;6.25;;;4.07;;
72755;SDS011;60881;55.002;73.232;2022-10-18T12:27:08;5.53;;;3.72;;
72755;SDS011;60881;55.002;73.232;2022-10-18T12:29:44;8.57;;;4.80;;
72755;SDS011;60881;55.002;73.232;2022-10-18T12:32:31;8.82;;;5.45;;
72755;SDS011;60881;55.002;73.232;2022-10-18T12:35:01;8.88;;;4.85;;
72755;SDS011;60881;55.002;73.232;2022-10-18T12:40:31;10.13;;;5.57;;
72755;SDS011;60881;55.002;73.232;2022-10-18T12:43:07;14.30;;;7.07;;
72755;SDS011;60881;55.002;73.232;2022-10-18T12:45:47;12.13;;;6.15;;
72755;SDS011;60881;55.002;73.232;2022-10-18T12:51:06;10.98;;;5.72;;
72755;SDS011;60881;55.002;73.232;2022-10-18T12:53:51;11.70;;;5.60;;
72755;SDS011;60881;55.002;73.232;2022-10-18T12:56:37;10.35;;;5.28;;
72755;SDS011;60881;55.002;73.232;2022-10-18T13:13:10;12.98;;;6.00;;
72755;SDS011;60881;55.002;73.232;2022-10-18T13:18:52;13.60;;;7.22;;
72755;SDS011;60881;55.002;73.232;2022-10-18T13:21:48;19.70;;;7.80;;
72755;SDS011;60881;55.002;73.232;2022-10-18T13:24:25;28.02;;;10.98;;
72755;SDS011;60881;55.002;73.232;2022-10-18T13:32:46;40.72;;;17.40;;
72755;SDS011;60881;55.002;73.232;2022-10-18T13:38:32;18.25;;;9.07;;
72755;SDS011;60881;55.002;73.232;2022-10-18T13:44:27;26.67;;;12.45;;
72755;SDS011;60881;55.002;73.232;2022-10-18T14:06:15;19.20;;;9.25;;
72755;SDS011;60881;55.002;73.232;2022-10-18T14:08:58;21.42;;;10.32;;
72755;SDS011;60881;55.002;73.232;2022-10-18T14:11:44;16.90;;;10.50;;
72755;SDS011;60881;55.002;73.232;2022-10-18T14:14:31;20.20;;;11.77;;
72755;SDS011;60881;55.002;73.232;2022-10-18T14:19:48;20.20;;;12.05;;
72755;SDS011;60881;55.002;73.232;2022-10-18T14:22:33;16.52;;;9.73;;
72755;SDS011;60881;55.002;73.232;2022-10-18T14:25:17;24.88;;;11.60;;
72755;SDS011;60881;55.002;73.232;2022-10-18T14:27:45;17.73;;;10.77;;
72755;SDS011;60881;55.002;73.232;2022-10-18T14:30:13;15.95;;;9.50;;
72755;SDS011;60881;55.002;73.232;2022-10-18T14:32:45;20.20;;;9.63;;
72755;SDS011;60881;55.002;73.232;2022-10-18T14:35:15;22.98;;;11.30;;
72755;SDS011;60881;55.002;73.232;2022-10-18T14:38:01;22.30;;;11.27;;
72755;SDS011;60881;55.002;73.232;2022-10-18T14:40:33;24.80;;;13.15;;
72755;SDS011;60881;55.002;73.232;2022-10-18T14:45:42;22.05;;;10.48;;
72755;SDS011;60881;55.002;73.232;2022-10-18T14:48:22;16.52;;;10.43;;
72755;SDS011;60881;55.002;73.232;2022-10-18T14:50:55;23.80;;;11.13;;
72755;SDS011;60881;55.002;73.232;2022-10-18T14:53:26;19.50;;;10.52;;
72755;SDS011;60881;55.002;73.232;2022-10-18T14:56:12;19.63;;;10.75;;
72755;SDS011;60881;55.002;73.232;2022-10-18T14:58:48;22.27;;;12.77;;
72755;SDS011;60881;55.002;73.232;2022-10-18T15:01:18;26.30;;;13.25;;
72755;SDS011;60881;55.002;73.232;2022-10-18T15:03:48;29.10;;;12.40;;
72755;SDS011;60881;55.002;73.232;2022-10-18T15:06:21;22.60;;;11.55;;
72755;SDS011;60881;55.002;73.232;2022-10-18T15:08:50;22.50;;;11.93;;
72755;SDS011;60881;55.002;73.232;2022-10-18T15:11:20;21.65;;;11.60;;
72755;SDS011;60881;55.002;73.232;2022-10-18T15:13:59;26.65;;;12.82;;
72755;SDS011;60881;55.002;73.232;2022-10-18T15:16:28;27.85;;;13.52;;
72755;SDS011;60881;55.002;73.232;2022-10-18T15:21:53;35.40;;;15.85;;
72755;SDS011;60881;55.002;73.232;2022-10-18T15:26:55;41.75;;;18.33;;
72755;SDS011;60881;55.002;73.232;2022-10-18T15:29:34;38.25;;;18.02;;
72755;SDS011;60881;55.002;73.232;2022-10-18T15:32:28;41.22;;;18.48;;
72755;SDS011;60881;55.002;73.232;2022-10-18T15:34:53;54.17;;;18.60;;
72755;SDS011;60881;55.002;73.232;2022-10-18T15:37:35;39.03;;;18.50;;
72755;SDS011;60881;55.002;73.232;2022-10-18T15:42:51;41.92;;;18.75;;
72755;SDS011;60881;55.002;73.232;2022-10-18T15:50:46;40.67;;;18.52;;
72755;SDS011;60881;55.002;73.232;2022-10-18T15:55:57;39.33;;;17.60;;
72755;SDS011;60881;55.002;73.232;2022-10-18T15:58:27;42.97;;;18.65;;
72755;SDS011;60881;55.002;73.232;2022-10-18T16:01:02;35.17;;;18.42;;
72755;SDS011;60881;55.002;73.232;2022-10-18T16:03:33;41.78;;;18.17;;
72755;SDS011;60881;55.002;73.232;2022-10-18T16:06:08;35.53;;;18.05;;
72755;SDS011;60881;55.002;73.232;2022-10-18T16:08:40;40.30;;;18.20;;
72755;SDS011;60881;55.002;73.232;2022-10-18T16:11:28;37.00;;;17.38;;
72755;SDS011;60881;55.002;73.232;2022-10-18T16:13:58;32.17;;;16.58;;
72755;SDS011;60881;55.002;73.232;2022-10-18T16:16:26;35.03;;;15.88;;
72755;SDS011;60881;55.002;73.232;2022-10-18T16:18:53;33.80;;;16.02;;
72755;SDS011;60881;55.002;73.232;2022-10-18T16:21:33;29.77;;;15.75;;
72755;SDS011;60881;55.002;73.232;2022-10-18T16:24:02;28.90;;;15.45;;
72755;SDS011;60881;55.002;73.232;2022-10-18T16:26:30;33.42;;;15.27;;
72755;SDS011;60881;55.002;73.232;2022-10-18T16:28:57;32.90;;;14.68;;
72755;SDS011;60881;55.002;73.232;2022-10-18T16:31:26;27.25;;;14.63;;
72755;SDS011;60881;55.002;73.232;2022-10-18T16:34:03;34.15;;;14.13;;
72755;SDS011;60881;55.002;73.232;2022-10-18T16:36:31;29.05;;;13.25;;
72755;SDS011;60881;55.002;73.232;2022-10-18T16:39:05;31.30;;;13.68;;
72755;SDS011;60881;55.002;73.232;2022-10-18T16:41:35;23.58;;;13.38;;
72755;SDS011;60881;55.002;73.232;2022-10-18T16:44:13;30.48;;;13.02;;
72755;SDS011;60881;55.002;73.232;2022-10-18T16:46:42;28.27;;;13.10;;
72755;SDS011;60881;55.002;73.232;2022-10-18T16:49:20;24.83;;;12.77;;
72755;SDS011;60881;55.002;73.232;2022-10-18T16:51:49;21.20;;;11.38;;
72755;SDS011;60881;55.002;73.232;2022-10-18T16:54:20;18.67;;;10.45;;
72755;SDS011;60881;55.002;73.232;2022-10-18T16:56:47;21.17;;;11.13;;
72755;SDS011;60881;55.002;73.232;2022-10-18T16:59:25;24.25;;;12.23;;
72755;SDS011;60881;55.002;73.232;2022-10-18T17:01:53;24.63;;;11.00;;
72755;SDS011;60881;55.002;73.232;2022-10-18T17:04:20;21.02;;;10.02;;
72755;SDS011;60881;55.002;73.232;2022-10-18T17:06:46;18.88;;;9.30;;
72755;SDS011;60881;55.002;73.232;2022-10-18T17:09:14;24.30;;;9.13;;
72755;SDS011;60881;55.002;73.232;2022-10-18T17:11:41;16.13;;;8.25;;
72755;SDS011;60881;55.002;73.232;2022-10-18T17:14:07;14.68;;;7.68;;
72755;SDS011;60881;55.002;73.232;2022-10-18T17:16:35;18.85;;;7.80;;
72755;SDS011;60881;55.002;73.232;2022-10-18T17:19:05;17.00;;;7.15;;
72755;SDS011;60881;55.002;73.232;2022-10-18T17:21:32;11.45;;;6.07;;
72755;SDS011;60881;55.002;73.232;2022-10-18T17:24:10;13.13;;;6.60;;
72755;SDS011;60881;55.002;73.232;2022-10-18T17:26:36;12.82;;;5.90;;
72755;SDS011;60881;55.002;73.232;2022-10-18T17:29:04;10.32;;;5.72;;
72755;SDS011;60881;55.002;73.232;2022-10-18T17:31:33;11.45;;;5.72;;
72755;SDS011;60881;55.002;73.232;2022-10-18T17:34:01;10.63;;;5.60;;
72755;SDS011;60881;55.002;73.232;2022-10-18T17:36:29;11.43;;;5.22;;
72755;SDS011;60881;55.002;73.232;2022-10-18T17:38:58;9.43;;;5.38;;